Time;durP1;ratioP1;P1;durP2;ratioP2;P2;SDS_P1;SDS_P2;PMS_P1;PMS_P2;Temp;Humidity;BMP_temperature;BMP_pressure;BME280_temperature;BME280_humidity;BME280_pressure;Samples;Min_cycle;Max_cycle;Signal;HPM_P1;HPM_P2
2021/08/17 00:01:39;;;;;;;8.52;1.88;;;13.00;96.90;;;;;;5043441;28;20056;-68
2021/08/17 00:04:04;;;;;;;7.30;1.52;;;13.00;96.90;;;;;;5048577;28;20024;-68
2021/08/17 00:06:30;;;;;;;7.65;1.92;;;13.00;97.00;;;;;;5044440;28;20036;-70
2021/08/17 00:08:56;;;;;;;8.45;2.50;;;13.00;97.00;;;;;;5044226;28;20055;-69
2021/08/17 00:11:22;;;;;;;10.35;2.03;;;13.00;97.20;;;;;;5025935;28;20468;-68
2021/08/17 00:13:47;;;;;;;7.82;1.63;;;13.00;97.10;;;;;;5044952;28;20058;-69
2021/08/17 00:16:14;;;;;;;9.85;2.13;;;13.00;97.20;;;;;;5043135;28;20496;-68
2021/08/17 00:18:40;;;;;;;9.07;2.20;;;13.10;97.30;;;;;;5036776;28;20041;-68
2021/08/17 00:21:05;;;;;;;10.73;2.03;;;13.00;97.40;;;;;;5044595;28;20039;-68
2021/08/17 00:23:32;;;;;;;7.13;1.80;;;13.00;97.50;;;;;;5042478;28;20136;-70
2021/08/17 00:25:58;;;;;;;5.95;1.38;;;13.00;97.50;;;;;;5043801;28;20208;-66
2021/08/17 00:28:23;;;;;;;9.43;1.85;;;12.90;97.80;;;;;;5028287;28;20359;-68
2021/08/17 00:30:49;;;;;;;10.45;2.08;;;12.90;98.00;;;;;;5043455;28;20088;-68
2021/08/17 00:33:14;;;;;;;7.50;1.90;;;12.90;98.10;;;;;;5044141;28;20033;-68
2021/08/17 00:35:40;;;;;;;11.98;2.08;;;13.00;98.20;;;;;;5047374;28;20040;-68
2021/08/17 00:38:06;;;;;;;10.10;2.05;;;12.90;98.20;;;;;;5024366;28;20033;-68
2021/08/17 00:40:33;;;;;;;6.32;1.65;;;13.00;98.30;;;;;;5043815;28;20116;-68
2021/08/17 00:42:59;;;;;;;7.78;1.80;;;13.00;98.30;;;;;;5045532;28;20048;-66
2021/08/17 00:45:28;;;;;;;10.05;1.85;;;13.00;98.30;;;;;;5044140;28;20064;-65
2021/08/17 00:47:55;;;;;;;5.35;1.70;;;13.00;98.30;;;;;;5044079;28;20033;-69
2021/08/17 00:50:22;;;;;;;10.68;1.75;;;13.00;98.10;;;;;;5043643;28;20021;-68
2021/08/17 00:52:48;;;;;;;6.72;1.55;;;13.10;97.90;;;;;;5030578;28;20040;-68
2021/08/17 00:55:14;;;;;;;5.10;1.95;;;13.10;97.50;;;;;;5042947;28;20066;-68
2021/08/17 00:57:44;;;;;;;5.28;1.70;;;13.00;97.50;;;;;;5042629;28;20055;-69
2021/08/17 01:00:11;;;;;;;5.05;1.67;;;13.00;97.30;;;;;;5044810;28;20031;-68
2021/08/17 01:02:36;;;;;;;5.22;1.67;;;13.00;97.00;;;;;;5030314;28;20071;-68
2021/08/17 01:05:04;;;;;;;5.10;1.48;;;13.00;97.00;;;;;;5043818;28;20044;-68
2021/08/17 01:07:30;;;;;;;9.90;1.60;;;12.90;97.00;;;;;;5041572;28;20076;-68
2021/08/17 01:09:55;;;;;;;4.22;1.50;;;12.90;96.90;;;;;;5044043;28;20462;-68
2021/08/17 01:12:21;;;;;;;6.57;1.67;;;12.80;96.80;;;;;;5043755;28;20108;-68
2021/08/17 01:14:47;;;;;;;7.78;1.70;;;12.80;97.00;;;;;;5047679;28;20074;-71
2021/08/17 01:17:14;;;;;;;5.88;1.20;;;12.80;97.20;;;;;;5042258;28;20036;-68
2021/08/17 01:19:39;;;;;;;6.25;1.45;;;12.80;97.30;;;;;;5043810;28;20039;-68
2021/08/17 01:22:05;;;;;;;7.03;1.50;;;12.80;97.40;;;;;;5043611;28;20036;-69
2021/08/17 01:24:31;;;;;;;4.53;1.42;;;12.70;97.50;;;;;;5043627;28;20385;-67
2021/08/17 01:26:56;;;;;;;9.13;1.73;;;12.70;97.60;;;;;;5043067;28;20104;-68
2021/08/17 01:29:24;;;;;;;4.70;1.80;;;12.70;97.80;;;;;;5042065;28;20047;-69
2021/08/17 01:31:51;;;;;;;4.50;1.95;;;12.70;97.80;;;;;;5043318;28;20024;-68
2021/08/17 01:34:17;;;;;;;3.70;1.40;;;12.70;97.90;;;;;;5025065;28;20331;-69
2021/08/17 01:36:43;;;;;;;7.22;1.70;;;12.70;97.90;;;;;;5044993;28;20021;-68
2021/08/17 01:39:09;;;;;;;5.10;1.63;;;12.70;97.90;;;;;;5043596;28;20323;-69
2021/08/17 01:41:35;;;;;;;6.28;1.60;;;12.70;97.90;;;;;;5042996;28;20041;-68
2021/08/17 01:44:05;;;;;;;8.05;1.70;;;12.80;98.10;;;;;;5050876;28;20029;-67
2021/08/17 01:46:31;;;;;;;12.30;1.92;;;12.80;98.20;;;;;;5046581;28;20031;-69
2021/08/17 01:48:56;;;;;;;9.00;1.98;;;12.90;98.30;;;;;;5048111;28;20111;-68
2021/08/17 01:51:22;;;;;;;9.25;2.40;;;12.90;98.40;;;;;;5047550;28;20124;-68
2021/08/17 01:53:48;;;;;;;9.65;2.90;;;13.00;98.50;;;;;;5046626;28;20040;-68
2021/08/17 01:56:15;;;;;;;13.00;3.65;;;13.00;98.60;;;;;;5045815;28;20098;-69
2021/08/17 01:58:42;;;;;;;20.23;4.32;;;13.00;98.40;;;;;;5047908;28;20044;-67
2021/08/17 02:01:09;;;;;;;21.80;4.60;;;13.00;98.40;;;;;;5046079;28;20029;-67
2021/08/17 02:03:35;;;;;;;23.05;4.88;;;13.10;98.20;;;;;;5044287;28;20070;-68
2021/08/17 02:06:01;;;;;;;21.20;4.38;;;13.10;98.20;;;;;;5041814;28;20528;-66
2021/08/17 02:08:27;;;;;;;17.20;3.80;;;13.10;98.10;;;;;;5046612;28;20052;-67
2021/08/17 02:10:53;;;;;;;22.17;4.68;;;13.10;98.10;;;;;;5034789;28;20040;-69
2021/08/17 02:13:20;;;;;;;18.55;4.30;;;13.10;97.90;;;;;;5043382;28;20066;-68
2021/08/17 02:15:47;;;;;;;15.63;4.15;;;13.10;97.90;;;;;;5036167;28;20044;-68
2021/08/17 02:18:13;;;;;;;16.75;3.92;;;13.10;98.00;;;;;;5045037;28;20430;-69
2021/08/17 02:20:39;;;;;;;18.42;3.85;;;13.10;98.00;;;;;;5046812;28;20093;-68
2021/08/17 02:23:06;;;;;;;19.67;4.13;;;13.10;98.00;;;;;;5046809;28;20440;-67
2021/08/17 02:25:31;;;;;;;14.20;3.65;;;13.10;98.00;;;;;;5028060;28;20423;-67
2021/08/17 02:27:57;;;;;;;21.33;4.57;;;13.10;98.10;;;;;;5044410;28;20162;-69
2021/08/17 02:30:23;;;;;;;18.80;4.10;;;13.10;98.10;;;;;;5047283;28;20096;-67
2021/08/17 02:32:49;;;;;;;16.88;4.13;;;13.10;98.30;;;;;;5046272;28;20021;-67
2021/08/17 02:35:14;;;;;;;20.85;4.32;;;13.10;98.40;;;;;;5046756;28;20017;-68
2021/08/17 02:37:40;;;;;;;15.40;3.78;;;13.10;98.40;;;;;;5052459;28;20475;-68
2021/08/17 02:40:06;;;;;;;15.05;4.30;;;13.10;98.40;;;;;;5045112;28;20075;-68
2021/08/17 02:42:33;;;;;;;16.15;3.17;;;13.10;98.40;;;;;;5038646;28;20033;-66
2021/08/17 02:44:59;;;;;;;17.75;3.70;;;13.10;98.40;;;;;;5048977;28;20099;-69
2021/08/17 02:47:26;;;;;;;14.13;4.10;;;13.20;98.40;;;;;;5045236;28;20098;-69
2021/08/17 02:49:52;;;;;;;17.13;3.50;;;13.20;98.30;;;;;;5049124;28;20045;-68
2021/08/17 02:52:17;;;;;;;14.45;3.78;;;13.10;98.30;;;;;;5045755;28;20032;-69
2021/08/17 02:54:43;;;;;;;15.82;3.65;;;13.20;98.20;;;;;;5044690;28;20511;-68
2021/08/17 02:57:09;;;;;;;15.05;4.13;;;13.20;98.10;;;;;;5045943;28;20036;-69
2021/08/17 02:59:34;;;;;;;11.55;3.80;;;13.20;98.10;;;;;;5029992;28;20412;-68
2021/08/17 03:02:00;;;;;;;7.05;2.80;;;13.20;98.10;;;;;;5038088;28;20040;-69
2021/08/17 03:04:26;;;;;;;11.50;2.95;;;13.20;98.00;;;;;;5046327;28;20033;-68
2021/08/17 03:06:52;;;;;;;10.70;3.80;;;13.20;97.90;;;;;;5046228;28;20033;-68
2021/08/17 03:09:17;;;;;;;12.23;2.67;;;13.30;98.00;;;;;;5051683;28;20040;-68
2021/08/17 03:11:43;;;;;;;10.43;2.50;;;13.20;98.00;;;;;;5045364;28;20033;-69
2021/08/17 03:14:08;;;;;;;6.88;2.30;;;13.20;97.90;;;;;;5043754;28;20028;-68
2021/08/17 03:16:35;;;;;;;9.30;2.67;;;13.20;97.80;;;;;;5043677;28;20057;-69
2021/08/17 03:19:02;;;;;;;12.05;2.88;;;13.20;97.90;;;;;;5043610;28;20036;-69
2021/08/17 03:21:27;;;;;;;7.25;2.30;;;13.20;98.00;;;;;;5045673;28;20107;-68
2021/08/17 03:23:53;;;;;;;14.02;3.03;;;13.20;97.90;;;;;;5047332;28;20105;-68
2021/08/17 03:26:18;;;;;;;9.23;2.72;;;13.20;98.10;;;;;;5044268;28;20024;-69
2021/08/17 03:28:44;;;;;;;13.98;2.95;;;13.20;98.00;;;;;;5045435;28;20434;-69
2021/08/17 03:31:10;;;;;;;12.07;3.53;;;13.20;98.10;;;;;;5043576;28;20028;-68
2021/08/17 03:33:36;;;;;;;15.05;3.85;;;13.10;98.30;;;;;;5044656;28;20494;-68
2021/08/17 03:36:04;;;;;;;14.18;2.78;;;13.10;98.40;;;;;;5045421;28;20048;-69
2021/08/17 03:38:30;;;;;;;18.15;3.38;;;13.10;98.40;;;;;;5045102;28;20473;-68
2021/08/17 03:40:56;;;;;;;9.45;3.63;;;13.10;98.40;;;;;;5045121;28;20033;-68
2021/08/17 03:43:25;;;;;;;11.50;3.22;;;13.10;98.40;;;;;;5044645;28;20029;-68
2021/08/17 03:45:50;;;;;;;17.25;3.38;;;13.10;98.40;;;;;;5039313;28;20030;-68
2021/08/17 03:48:16;;;;;;;12.60;2.72;;;13.10;98.40;;;;;;5044705;28;20365;-68
2021/08/17 03:50:42;;;;;;;16.95;3.22;;;13.20;98.40;;;;;;5045071;28;20029;-68
2021/08/17 03:53:08;;;;;;;9.23;2.92;;;13.10;98.30;;;;;;5034489;28;20224;-69
2021/08/17 03:55:33;;;;;;;10.27;3.10;;;13.10;98.30;;;;;;5044606;28;20186;-67
2021/08/17 03:57:59;;;;;;;13.02;3.30;;;13.10;98.30;;;;;;5044546;28;20040;-68
2021/08/17 04:00:26;;;;;;;16.20;3.47;;;13.10;98.50;;;;;;5042157;28;20132;-68
2021/08/17 04:02:52;;;;;;;17.38;3.75;;;13.10;98.60;;;;;;5045891;28;20020;-68
2021/08/17 04:05:18;;;;;;;13.20;2.70;;;13.10;98.70;;;;;;5045469;28;20032;-68
2021/08/17 04:07:44;;;;;;;14.55;3.33;;;13.10;98.80;;;;;;5025433;28;20084;-68
2021/08/17 04:10:10;;;;;;;9.90;2.67;;;13.10;98.80;;;;;;5049172;28;20393;-68
2021/08/17 04:12:36;;;;;;;10.48;3.17;;;13.10;98.70;;;;;;5045023;28;20147;-68
2021/08/17 04:15:02;;;;;;;11.43;2.90;;;13.10;98.80;;;;;;5044188;28;20033;-67
2021/08/17 04:17:28;;;;;;;11.50;2.78;;;13.10;98.80;;;;;;5043193;28;20401;-68
2021/08/17 04:19:54;;;;;;;10.10;2.83;;;13.00;98.90;;;;;;5044835;28;20029;-68
2021/08/17 04:22:20;;;;;;;5.18;2.00;;;13.00;99.10;;;;;;5047757;28;20028;-69
2021/08/17 04:24:46;;;;;;;8.95;2.35;;;13.00;99.20;;;;;;5044547;28;20104;-69
2021/08/17 04:27:12;;;;;;;7.25;2.28;;;13.00;99.20;;;;;;5035128;28;20025;-66
2021/08/17 04:29:38;;;;;;;7.65;2.60;;;13.00;99.30;;;;;;5041706;28;20395;-68
2021/08/17 04:32:05;;;;;;;10.52;2.75;;;13.00;99.30;;;;;;5043017;28;20096;-68
2021/08/17 04:34:31;;;;;;;9.68;3.05;;;13.00;99.20;;;;;;5046823;28;20094;-68
2021/08/17 04:36:57;;;;;;;13.43;3.50;;;13.10;99.20;;;;;;5044289;28;20024;-67
2021/08/17 04:39:22;;;;;;;13.73;3.92;;;13.10;99.00;;;;;;5043337;28;20114;-69
2021/08/17 04:41:48;;;;;;;17.35;4.47;;;13.10;99.00;;;;;;5043550;28;20025;-68
2021/08/17 04:44:14;;;;;;;17.67;4.07;;;13.20;99.00;;;;;;5049429;28;20041;-68
2021/08/17 04:46:39;;;;;;;12.32;4.20;;;13.20;98.80;;;;;;5043787;28;20434;-69
2021/08/17 04:49:07;;;;;;;14.05;4.22;;;13.20;98.90;;;;;;5042928;28;20032;-67
2021/08/17 04:51:32;;;;;;;12.88;3.38;;;13.20;98.90;;;;;;5044253;28;20351;-67
2021/08/17 04:53:58;;;;;;;10.70;3.85;;;13.10;98.80;;;;;;5044206;28;20485;-68
2021/08/17 04:56:24;;;;;;;16.20;4.50;;;13.20;98.80;;;;;;5024960;28;20025;-68
2021/08/17 04:58:51;;;;;;;13.77;4.60;;;13.20;98.90;;;;;;5043885;28;20489;-68
2021/08/17 05:01:16;;;;;;;18.92;4.50;;;13.10;98.80;;;;;;5043540;28;20025;-68
2021/08/17 05:03:42;;;;;;;20.23;5.18;;;13.10;98.90;;;;;;5042471;28;20032;-68
2021/08/17 05:06:07;;;;;;;12.93;4.15;;;13.20;99.00;;;;;;5050828;28;20049;-68
2021/08/17 05:08:33;;;;;;;19.45;4.70;;;13.10;98.90;;;;;;5043565;28;20025;-68
2021/08/17 05:10:59;;;;;;;17.02;4.40;;;13.10;98.70;;;;;;5043600;28;20033;-67
2021/08/17 05:13:24;;;;;;;13.52;4.10;;;13.20;98.70;;;;;;5047522;28;20453;-68
2021/08/17 05:15:50;;;;;;;14.32;4.18;;;13.20;98.60;;;;;;5027891;28;20025;-68
2021/08/17 05:18:16;;;;;;;18.48;4.00;;;13.30;98.50;;;;;;5040285;28;20447;-68
2021/08/17 05:20:41;;;;;;;14.13;4.60;;;13.30;98.40;;;;;;5046150;28;20041;-69
2021/08/17 05:23:07;;;;;;;18.90;4.97;;;13.30;98.40;;;;;;5043377;28;20021;-68
2021/08/17 05:25:32;;;;;;;19.88;4.30;;;13.20;98.50;;;;;;5043470;28;20164;-69
2021/08/17 05:27:58;;;;;;;17.30;4.00;;;13.20;98.50;;;;;;5043275;28;20032;-68
2021/08/17 05:30:24;;;;;;;10.68;4.35;;;13.10;98.50;;;;;;5039328;28;20098;-68
2021/08/17 05:32:51;;;;;;;18.35;4.40;;;13.10;98.50;;;;;;5041321;28;20052;-67
2021/08/17 05:35:17;;;;;;;12.82;4.45;;;13.10;98.50;;;;;;5044212;28;20025;-68
2021/08/17 05:37:42;;;;;;;12.18;4.03;;;13.10;98.60;;;;;;5043408;28;20448;-68
2021/08/17 05:40:09;;;;;;;12.73;3.83;;;13.10;98.60;;;;;;5043635;28;20075;-68
2021/08/17 05:42:34;;;;;;;9.82;3.45;;;13.00;98.50;;;;;;5040333;28;20182;-68
2021/08/17 05:45:00;;;;;;;11.23;3.97;;;13.00;98.50;;;;;;5040796;28;20025;-68
2021/08/17 05:47:27;;;;;;;9.73;3.30;;;13.10;98.60;;;;;;5043393;28;20052;-69
2021/08/17 05:49:52;;;;;;;13.52;3.85;;;13.10;98.50;;;;;;5043002;28;20062;-68
2021/08/17 05:52:18;;;;;;;11.80;4.60;;;13.10;98.50;;;;;;5026356;28;20096;-69
2021/08/17 05:54:44;;;;;;;16.40;4.00;;;13.10;98.30;;;;;;5043041;28;20135;-70
2021/08/17 05:57:09;;;;;;;15.85;3.92;;;13.10;98.30;;;;;;5042056;28;20386;-69
2021/08/17 05:59:35;;;;;;;13.43;3.42;;;13.10;98.30;;;;;;5048032;28;20048;-67
2021/08/17 06:02:02;;;;;;;13.63;3.60;;;13.10;98.20;;;;;;5046606;28;20198;-69
2021/08/17 06:04:28;;;;;;;10.98;3.78;;;13.10;98.10;;;;;;5042935;28;20081;-68
2021/08/17 06:06:54;;;;;;;12.70;3.53;;;13.10;98.00;;;;;;5040137;28;20085;-69
2021/08/17 06:09:21;;;;;;;11.75;3.90;;;13.10;98.20;;;;;;5043918;28;20114;-68
2021/08/17 06:11:48;;;;;;;13.73;3.88;;;13.10;98.30;;;;;;5037883;28;20116;-70
2021/08/17 06:14:13;;;;;;;11.90;4.07;;;13.00;98.30;;;;;;5043020;28;20044;-69
2021/08/17 06:16:40;;;;;;;14.88;4.05;;;13.00;98.30;;;;;;5041139;28;20041;-71
2021/08/17 06:19:06;;;;;;;8.07;3.35;;;12.90;98.10;;;;;;5047964;28;20056;-68
2021/08/17 06:21:32;;;;;;;15.48;4.10;;;12.90;98.10;;;;;;5042077;28;20098;-68
2021/08/17 06:23:58;;;;;;;12.40;4.22;;;12.80;98.00;;;;;;5043183;28;20039;-69
2021/08/17 06:26:25;;;;;;;10.50;3.75;;;12.80;98.10;;;;;;5046513;28;20021;-68
2021/08/17 06:28:50;;;;;;;15.75;4.00;;;12.80;98.00;;;;;;5044186;28;20039;-68
2021/08/17 06:31:22;;;;;;;20.88;4.88;;;12.90;98.00;;;;;;5021376;28;20556;-70
2021/08/17 06:33:53;;;;;;;13.93;3.97;;;12.80;97.90;;;;;;5045940;28;20106;-71
2021/08/17 06:36:20;;;;;;;12.35;4.22;;;12.80;97.70;;;;;;5047422;28;20500;-69
2021/08/17 06:38:46;;;;;;;21.92;4.88;;;12.80;98.00;;;;;;5048683;28;20079;-68
2021/08/17 06:41:12;;;;;;;13.45;4.45;;;12.70;98.10;;;;;;5046165;28;20053;-68
2021/08/17 06:43:37;;;;;;;14.52;4.10;;;12.70;98.10;;;;;;5046158;28;20086;-68
2021/08/17 06:46:04;;;;;;;13.63;4.07;;;12.70;98.30;;;;;;5045901;28;20405;-69
2021/08/17 06:48:29;;;;;;;19.58;4.60;;;12.70;98.40;;;;;;5046709;28;20058;-69
2021/08/17 06:50:55;;;;;;;15.55;4.43;;;12.70;98.40;;;;;;5052358;28;20442;-70
2021/08/17 06:53:21;;;;;;;13.05;4.68;;;12.70;98.40;;;;;;5045542;28;20304;-71
2021/08/17 06:55:47;;;;;;;17.48;4.68;;;12.70;98.20;;;;;;5043634;28;20033;-68
2021/08/17 06:58:13;;;;;;;16.73;4.63;;;12.80;98.20;;;;;;5045566;28;20051;-69
2021/08/17 07:00:43;;;;;;;13.10;4.43;;;12.70;98.00;;;;;;5044635;28;20578;-69
2021/08/17 07:03:09;;;;;;;16.60;4.18;;;12.70;98.10;;;;;;5045379;28;20094;-68
2021/08/17 07:05:36;;;;;;;18.48;4.07;;;12.80;98.00;;;;;;5028403;28;20029;-71
2021/08/17 07:08:03;;;;;;;11.18;4.65;;;12.80;98.20;;;;;;5044141;28;20032;-68
2021/08/17 07:10:29;;;;;;;16.67;4.45;;;12.80;98.00;;;;;;5045265;28;20068;-67
2021/08/17 07:12:54;;;;;;;18.52;5.30;;;12.70;97.80;;;;;;5033763;28;20061;-68
2021/08/17 07:15:20;;;;;;;14.85;4.55;;;12.80;98.00;;;;;;5045154;28;20036;-68
2021/08/17 07:17:46;;;;;;;18.58;4.85;;;12.80;98.10;;;;;;5044478;28;20127;-68
2021/08/17 07:20:12;;;;;;;18.98;4.72;;;12.80;98.00;;;;;;5045676;28;20021;-68
2021/08/17 07:22:38;;;;;;;19.08;4.60;;;12.80;97.90;;;;;;5043485;28;20037;-66
2021/08/17 07:25:04;;;;;;;14.88;4.32;;;12.80;97.80;;;;;;5045059;28;20493;-68
2021/08/17 07:27:29;;;;;;;12.18;4.40;;;12.90;97.60;;;;;;5040075;28;20110;-69
2021/08/17 07:29:55;;;;;;;25.00;5.00;;;12.90;97.50;;;;;;5045396;28;20046;-68
2021/08/17 07:32:21;;;;;;;19.90;4.22;;;13.00;97.50;;;;;;5045035;28;20128;-68
2021/08/17 07:34:47;;;;;;;16.80;4.15;;;13.00;97.40;;;;;;5043078;28;20108;-69
2021/08/17 07:37:12;;;;;;;16.30;4.35;;;12.90;97.40;;;;;;5031760;28;20177;-68
2021/08/17 07:39:38;;;;;;;12.40;4.10;;;13.00;97.20;;;;;;5044047;28;20177;-68
2021/08/17 07:42:03;;;;;;;20.98;4.35;;;13.10;97.30;;;;;;5044130;28;20059;-67
2021/08/17 07:44:30;;;;;;;16.65;4.22;;;13.10;97.10;;;;;;5045315;28;20037;-70
2021/08/17 07:46:56;;;;;;;18.95;3.75;;;13.20;97.00;;;;;;5045509;28;20027;-69
2021/08/17 07:49:22;;;;;;;17.23;3.72;;;13.30;96.70;;;;;;5045353;28;20021;-68
2021/08/17 07:51:48;;;;;;;19.00;4.10;;;13.30;96.90;;;;;;5027461;28;20039;-69
2021/08/17 07:54:13;;;;;;;17.45;4.13;;;13.40;96.90;;;;;;5040585;28;20109;-69
2021/08/17 07:56:39;;;;;;;12.32;2.95;;;13.50;96.70;;;;;;5045128;28;20098;-69
2021/08/17 07:59:04;;;;;;;18.55;4.88;;;13.50;96.00;;;;;;5045421;28;20052;-68
2021/08/17 08:01:30;;;;;;;17.00;3.63;;;13.60;96.30;;;;;;5045230;28;20373;-70
2021/08/17 08:03:57;;;;;;;15.68;3.95;;;13.60;96.10;;;;;;5026538;28;20043;-68
2021/08/17 08:06:23;;;;;;;14.27;3.10;;;13.60;95.70;;;;;;5044345;28;20211;-69
2021/08/17 08:08:49;;;;;;;16.52;3.55;;;13.60;95.50;;;;;;5048530;28;20104;-69
2021/08/17 08:11:15;;;;;;;14.60;4.05;;;13.60;95.60;;;;;;5045879;28;20040;-68
2021/08/17 08:13:41;;;;;;;10.27;3.00;;;13.70;95.90;;;;;;5044914;28;20365;-69
2021/08/17 08:16:06;;;;;;;13.13;2.97;;;13.80;95.40;;;;;;5044789;28;20125;-68
2021/08/17 08:18:32;;;;;;;9.18;3.20;;;13.90;95.00;;;;;;5045047;28;20091;-68
2021/08/17 08:20:58;;;;;;;9.27;3.38;;;14.00;94.50;;;;;;5042654;28;20565;-68
2021/08/17 08:23:23;;;;;;;12.48;3.03;;;14.00;94.30;;;;;;5044559;28;20031;-70
2021/08/17 08:25:49;;;;;;;17.80;3.45;;;14.10;94.50;;;;;;5043220;28;20575;-69
2021/08/17 08:28:15;;;;;;;11.45;2.58;;;14.30;94.00;;;;;;5044499;28;20040;-69
2021/08/17 08:30:40;;;;;;;11.57;2.75;;;14.40;93.50;;;;;;5045030;28;20061;-69
2021/08/17 08:33:06;;;;;;;10.38;2.50;;;14.60;92.90;;;;;;5044554;28;20529;-69
2021/08/17 08:35:31;;;;;;;9.27;2.33;;;14.80;92.60;;;;;;5044801;28;20196;-69
2021/08/17 08:37:57;;;;;;;9.73;2.40;;;14.80;91.40;;;;;;5044393;28;20446;-69
2021/08/17 08:40:26;;;;;;;11.73;2.70;;;14.80;91.40;;;;;;5026400;28;20120;-69
2021/08/17 08:42:53;;;;;;;10.43;2.90;;;14.80;92.00;;;;;;5037936;28;20031;-68
2021/08/17 08:45:18;;;;;;;13.93;2.85;;;14.70;90.50;;;;;;5026486;28;20381;-69
2021/08/17 08:47:45;;;;;;;10.65;2.42;;;14.70;91.20;;;;;;5044119;28;20047;-68
2021/08/17 08:50:12;;;;;;;7.65;2.17;;;14.60;90.90;;;;;;5043423;28;20036;-69
2021/08/17 08:52:38;;;;;;;13.55;2.45;;;14.60;91.20;;;;;;5029038;28;20402;-71
2021/08/17 08:55:06;;;;;;;10.68;2.50;;;14.60;91.00;;;;;;5045790;28;20110;-69
2021/08/17 08:57:31;;;;;;;14.70;2.50;;;14.50;90.10;;;;;;5044612;28;20039;-69
2021/08/17 08:59:57;;;;;;;13.68;2.50;;;14.50;90.80;;;;;;5044751;28;20045;-69
2021/08/17 09:02:29;;;;;;;9.90;2.63;;;14.50;91.50;;;;;;5043622;28;20109;-69
2021/08/17 09:04:56;;;;;;;8.95;2.90;;;14.50;91.60;;;;;;5037759;28;20017;-69
2021/08/17 09:07:42;;;;;;;15.05;2.55;;;14.50;90.70;;;;;;5043815;28;20154;-69
2021/08/17 09:10:11;;;;;;;6.93;2.10;;;14.60;90.30;;;;;;5038688;28;20025;-70
2021/08/17 09:12:45;;;;;;;8.90;2.50;;;14.70;90.10;;;;;;5042451;28;20062;-69
2021/08/17 09:15:19;;;;;;;13.25;2.90;;;14.80;89.70;;;;;;5045861;28;20036;-69
2021/08/17 09:17:56;;;;;;;7.07;1.63;;;15.00;89.40;;;;;;5039159;28;20064;-68
2021/08/17 09:20:28;;;;;;;8.55;2.25;;;15.10;89.00;;;;;;5040405;28;20039;-72
2021/08/17 09:22:54;;;;;;;10.52;1.90;;;15.20;88.80;;;;;;5041682;28;20430;-69
2021/08/17 09:25:32;;;;;;;10.00;2.13;;;15.10;87.80;;;;;;5042796;28;20059;-69
2021/08/17 09:28:34;;;;;;;14.25;2.15;;;15.10;88.20;;;;;;5041242;28;20152;-70
2021/08/17 09:31:33;;;;;;;13.32;2.92;;;15.00;87.90;;;;;;5038660;28;20066;-71
2021/08/17 09:33:59;;;;;;;8.52;2.05;;;15.00;88.70;;;;;;5041729;28;20413;-69
2021/08/17 09:36:25;;;;;;;11.13;1.83;;;14.90;88.20;;;;;;5043674;28;20152;-69
2021/08/17 09:38:50;;;;;;;12.45;2.33;;;15.00;87.90;;;;;;5043350;28;20035;-68
2021/08/17 09:41:24;;;;;;;6.85;2.13;;;14.90;87.00;;;;;;5043135;28;20105;-68
2021/08/17 09:44:03;;;;;;;7.75;1.70;;;15.00;86.60;;;;;;5036925;28;20044;-69
2021/08/17 09:46:29;;;;;;;8.20;2.35;;;15.00;85.80;;;;;;5045345;28;20186;-70
2021/08/17 09:48:59;;;;;;;10.15;1.80;;;15.00;87.20;;;;;;5042782;28;20028;-69
2021/08/17 09:51:34;;;;;;;7.70;1.88;;;15.00;86.30;;;;;;5043140;28;20024;-67
2021/08/17 09:54:11;;;;;;;8.88;1.83;;;15.10;84.60;;;;;;5042602;28;20052;-70
2021/08/17 09:56:37;;;;;;;10.57;1.92;;;15.20;85.40;;;;;;5030913;28;20062;-69
2021/08/17 09:59:05;;;;;;;12.55;2.13;;;15.40;85.00;;;;;;5042762;28;20082;-69
2021/08/17 10:01:31;;;;;;;14.15;2.40;;;15.40;84.40;;;;;;5045428;28;20033;-70
2021/08/17 10:03:59;;;;;;;9.13;2.20;;;15.50;83.70;;;;;;5044796;28;20442;-70
2021/08/17 10:06:26;;;;;;;9.90;1.83;;;15.40;84.40;;;;;;5047362;28;20116;-71
2021/08/17 10:08:55;;;;;;;11.60;2.00;;;15.40;84.50;;;;;;5046844;28;20053;-68
2021/08/17 10:11:21;;;;;;;9.90;2.10;;;15.40;84.50;;;;;;5044097;28;20116;-71
2021/08/17 10:13:47;;;;;;;9.65;2.20;;;15.60;83.00;;;;;;5042112;28;20081;-70
2021/08/17 10:16:17;;;;;;;11.80;2.35;;;15.60;82.80;;;;;;5050431;28;20033;-70
2021/08/17 10:18:44;;;;;;;8.32;2.13;;;15.70;82.50;;;;;;5046499;28;20124;-69
2021/08/17 10:21:10;;;;;;;11.73;2.53;;;15.80;82.50;;;;;;5046976;28;20055;-69
2021/08/17 10:23:41;;;;;;;9.13;2.50;;;16.00;82.20;;;;;;5046734;28;20423;-72
2021/08/17 10:26:07;;;;;;;14.02;2.33;;;16.00;82.10;;;;;;5052009;28;20101;-69
2021/08/17 10:28:37;;;;;;;7.72;1.83;;;16.10;81.10;;;;;;5045902;28;20025;-70
2021/08/17 10:31:11;;;;;;;7.20;2.00;;;16.10;81.30;;;;;;5048042;28;20354;-69
2021/08/17 10:34:08;;;;;;;8.98;2.13;;;16.00;80.20;;;;;;5044399;28;20089;-69
2021/08/17 10:36:38;;;;;;;10.77;2.20;;;16.00;81.40;;;;;;5044676;28;20567;-69
2021/08/17 10:39:16;;;;;;;8.63;2.03;;;16.10;81.10;;;;;;5041026;28;20458;-70
2021/08/17 10:41:42;;;;;;;7.72;1.85;;;16.40;79.90;;;;;;5045990;28;20037;-69
2021/08/17 10:44:11;;;;;;;9.90;2.17;;;16.50;80.00;;;;;;5050527;28;20043;-70
2021/08/17 10:46:45;;;;;;;9.57;2.05;;;16.50;80.20;;;;;;5041778;28;20032;-70
2021/08/17 10:49:43;;;;;;;9.07;2.03;;;16.70;80.10;;;;;;5046197;28;20114;-69
2021/08/17 10:52:10;;;;;;;14.55;2.83;;;16.70;78.80;;;;;;5046732;28;20035;-68
2021/08/17 10:54:38;;;;;;;12.52;2.72;;;16.90;79.40;;;;;;5046168;28;20040;-71
2021/08/17 10:57:16;;;;;;;9.05;2.80;;;17.40;77.60;;;;;;5046052;28;20060;-70
2021/08/17 10:59:44;;;;;;;10.43;3.05;;;17.70;77.40;;;;;;5046793;28;20057;-67
2021/08/17 11:02:11;;;;;;;7.47;2.67;;;17.50;77.60;;;;;;5048485;28;20323;-70
2021/08/17 11:04:43;;;;;;;7.68;2.08;;;17.50;77.80;;;;;;5044297;28;20047;-70
2021/08/17 11:07:21;;;;;;;9.35;2.72;;;17.40;78.10;;;;;;5044889;28;20112;-68
2021/08/17 11:09:47;;;;;;;8.75;2.55;;;17.20;77.90;;;;;;5043757;28;20025;-70
2021/08/17 11:12:12;;;;;;;9.60;2.35;;;17.00;77.10;;;;;;5046050;28;20033;-68
2021/08/17 11:14:43;;;;;;;13.90;2.40;;;17.00;76.40;;;;;;5045624;28;20076;-69
2021/08/17 11:17:11;;;;;;;;;;;17.10;75.50;;;;;;5045247;28;20047;-70
2021/08/17 11:19:41;;;;;;;7.55;1.95;;;17.20;74.40;;;;;;5046626;28;20348;-69
2021/08/17 11:22:09;;;;;;;8.73;1.88;;;17.60;72.70;;;;;;5027907;28;20056;-71
2021/08/17 11:24:47;;;;;;;10.15;2.33;;;18.00;73.30;;;;;;5045288;28;20108;-70
2021/08/17 11:27:14;;;;;;;8.35;2.00;;;17.70;70.80;;;;;;5055871;28;20066;-68
2021/08/17 11:29:47;;;;;;;7.03;2.30;;;17.60;70.80;;;;;;5032178;28;20056;-70
2021/08/17 11:32:30;;;;;;;12.40;2.03;;;17.40;71.80;;;;;;5045397;28;20033;-69
2021/08/17 11:35:10;;;;;;;9.30;1.98;;;17.10;73.20;;;;;;5044459;28;20109;-70
2021/08/17 11:37:38;;;;;;;7.68;2.75;;;17.00;73.60;;;;;;5045656;28;20092;-69
2021/08/17 11:40:06;;;;;;;15.98;3.17;;;16.80;74.80;;;;;;5046225;28;20353;-69
2021/08/17 11:42:37;;;;;;;11.32;3.10;;;16.70;75.00;;;;;;5036585;28;20030;-69
2021/08/17 11:45:14;;;;;;;6.55;2.15;;;16.60;75.80;;;;;;5045259;28;20044;-69
2021/08/17 11:47:41;;;;;;;8.18;2.60;;;16.50;75.10;;;;;;5042246;28;20048;-68
2021/08/17 11:50:13;;;;;;;9.98;2.95;;;16.50;75.50;;;;;;5046204;28;20068;-69
2021/08/17 11:52:40;;;;;;;10.02;2.78;;;16.50;75.40;;;;;;5045709;28;20112;-71
2021/08/17 11:55:07;;;;;;;7.13;2.60;;;16.50;74.50;;;;;;5044621;28;20040;-70
2021/08/17 11:57:41;;;;;;;6.35;2.47;;;16.60;75.80;;;;;;5043218;28;20097;-69
2021/08/17 12:00:09;;;;;;;9.27;2.78;;;16.50;74.80;;;;;;5025330;28;20067;-70
2021/08/17 12:02:35;;;;;;;10.48;3.17;;;16.50;74.10;;;;;;5043373;28;20025;-69
2021/08/17 12:05:05;;;;;;;7.47;2.75;;;16.50;73.70;;;;;;5049674;28;20463;-68
2021/08/17 12:07:32;;;;;;;11.32;3.00;;;16.60;72.90;;;;;;5044923;28;20021;-69
2021/08/17 12:10:15;;;;;;;9.70;2.70;;;17.00;74.00;;;;;;5040113;28;20013;-69
2021/08/17 12:12:51;;;;;;;11.43;3.00;;;17.10;73.30;;;;;;5044274;28;20047;-68
2021/08/17 12:15:18;;;;;;;9.55;2.72;;;17.30;71.50;;;;;;5043267;28;20024;-72
2021/08/17 12:17:59;;;;;;;12.00;3.25;;;17.50;70.30;;;;;;5039833;28;20083;-69
2021/08/17 12:20:24;;;;;;;;;;;17.50;72.00;;;;;;5030379;28;20133;-69
2021/08/17 12:22:50;;;;;;;9.77;3.45;;;17.80;73.70;;;;;;5044962;28;19967;-69
2021/08/17 12:25:23;;;;;;;10.40;4.10;;;17.80;73.30;;;;;;5044657;28;20036;-70
2021/08/17 12:27:57;;;;;;;11.20;3.97;;;17.90;72.80;;;;;;5043412;28;20030;-69
2021/08/17 12:30:32;;;;;;;13.30;4.20;;;18.10;73.70;;;;;;5042897;28;20153;-69
2021/08/17 12:32:59;;;;;;;10.68;3.83;;;17.90;73.10;;;;;;5044135;28;20017;-69
2021/08/17 12:35:30;;;;;;;11.07;4.15;;;17.90;74.00;;;;;;5043187;28;20103;-70
2021/08/17 12:37:57;;;;;;;14.30;4.30;;;17.90;74.20;;;;;;5044293;28;20020;-69
2021/08/17 12:40:23;;;;;;;10.63;4.90;;;18.50;72.50;;;;;;5043649;28;20489;-70
2021/08/17 12:42:48;;;;;;;10.30;4.53;;;19.10;71.00;;;;;;5033023;28;20104;-69